createdAt,value
2023-01-29T00:02:15.547Z,100263.47
2023-01-29T00:04:42.579Z,100261.50
2023-01-29T00:07:09.884Z,100256.25
2023-01-29T00:09:37.078Z,100263.19
2023-01-29T00:12:04.519Z,100264.81
2023-01-29T00:14:31.503Z,100250.69
2023-01-29T00:16:58.896Z,100255.97
2023-01-29T00:19:25.925Z,100260.41
2023-01-29T00:21:53.208Z,100266.78
2023-01-29T00:24:20.330Z,100273.84
2023-01-29T00:26:50.017Z,100272.34
2023-01-29T00:29:17.842Z,100272.94
2023-01-29T00:31:46.072Z,100276.53
2023-01-29T00:34:13.481Z,100271.25
2023-01-29T00:36:40.742Z,100281.53
2023-01-29T00:39:10.671Z,100278.34
2023-01-29T00:41:57.224Z,100276.03
2023-01-29T00:44:42.894Z,100280.31
2023-01-29T00:47:29.035Z,100277.25
2023-01-29T00:49:56.742Z,100282.25
2023-01-29T00:52:24.619Z,100280.75
2023-01-29T00:55:02.366Z,100280.75
2023-01-29T00:57:32.135Z,100279.09
2023-01-29T00:59:59.722Z,100294.06
2023-01-29T01:02:47.193Z,100280.97
2023-01-29T01:05:18.236Z,100277.13
2023-01-29T01:07:53.028Z,100284.34
2023-01-29T01:10:25.610Z,100278.75
2023-01-29T01:13:06.256Z,100280.19
2023-01-29T01:15:39.835Z,100281.56
2023-01-29T01:18:07.567Z,100289.06
2023-01-29T01:20:36.269Z,100285.16
2023-01-29T01:23:04.097Z,100285.16
2023-01-29T01:25:31.273Z,100290.44
2023-01-29T01:28:02.773Z,100287.13
2023-01-29T01:30:30.449Z,100294.59
2023-01-29T01:32:58.056Z,100296.56
2023-01-29T01:35:25.131Z,100289.94
2023-01-29T01:37:52.576Z,100298.25
2023-01-29T01:40:25.712Z,100297.97
2023-01-29T01:42:59.872Z,100299.06
2023-01-29T01:45:33.748Z,100302.69
2023-01-29T01:48:11.296Z,100302.69
2023-01-29T01:51:03.654Z,100315.84
2023-01-29T01:54:07.243Z,100305.72
2023-01-29T01:56:40.591Z,100310.00
2023-01-29T01:59:15.839Z,100301.69
2023-01-29T02:01:50.083Z,100299.06
2023-01-29T02:04:41.783Z,100293.50
2023-01-29T02:07:33.666Z,100295.19
2023-01-29T02:10:09.451Z,100280.75
2023-01-29T02:12:38.399Z,100277.69
2023-01-29T02:15:06.849Z,100263.59
2023-01-29T02:17:34.053Z,100273.03
2023-01-29T02:20:24.648Z,100260.25
2023-01-29T02:22:55.420Z,100270.50
2023-01-29T02:26:02.562Z,100261.50
2023-01-29T02:28:45.631Z,100258.34
2023-01-29T02:31:44.279Z,100248.38
2023-01-29T02:34:25.966Z,100226.88
2023-01-29T02:37:10.407Z,100237.28
2023-01-29T02:39:51.789Z,100248.75
2023-01-29T02:42:39.108Z,100248.34
2023-01-29T02:45:18.151Z,100251.56
2023-01-29T02:47:58.798Z,100243.94
2023-01-29T02:50:44.784Z,100241.19
2023-01-29T02:53:19.117Z,100243.97
2023-01-29T02:55:59.838Z,100247.03
2023-01-29T02:58:50.999Z,100253.09
2023-01-29T03:01:31.383Z,100246.03
2023-01-29T03:04:14.030Z,100235.66
2023-01-29T03:06:58.354Z,100251.03
2023-01-29T03:09:31.653Z,100241.19
2023-01-29T03:12:28.435Z,100240.91
2023-01-29T03:15:12.118Z,100252.00
2023-01-29T03:17:58.824Z,100260.88
2023-01-29T03:20:38.557Z,100269.72
2023-01-29T03:23:23.789Z,100279.03
2023-01-29T03:26:14.692Z,100276.38
2023-01-29T03:29:03.785Z,100270.81
2023-01-29T03:31:55.072Z,100279.41
2023-01-29T03:34:34.944Z,100279.69
2023-01-29T03:37:11.093Z,100272.50
2023-01-29T03:39:38.192Z,100274.13
2023-01-29T03:42:41.394Z,100283.44
2023-01-29T03:45:46.970Z,100286.06
2023-01-29T03:48:40.686Z,100279.03
2023-01-29T03:51:51.087Z,100289.13
2023-01-29T03:54:52.962Z,100283.88
2023-01-29T03:57:37.973Z,100272.63
2023-01-29T04:00:12.397Z,100266.13
2023-01-29T04:03:20.778Z,100263.78
2023-01-29T04:06:24.090Z,100263.09
2023-01-29T04:09:45.524Z,100261.16
2023-01-29T04:12:20.446Z,100266.16
2023-01-29T04:14:51.536Z,100258.66
2023-01-29T04:17:27.618Z,100256.44
2023-01-29T04:20:04.532Z,100250.34
2023-01-29T04:22:39.873Z,100244.25
2023-01-29T04:25:19.385Z,100243.97
2023-01-29T04:28:08.643Z,100244.94
2023-01-29T04:31:08.577Z,100244.53
2023-01-29T04:34:02.180Z,100244.28
2023-01-29T04:37:07.811Z,100244.97
2023-01-29T04:39:48.170Z,100250.91
2023-01-29T04:42:42.795Z,100239.16
2023-01-29T04:45:59.104Z,100223.22
2023-01-29T04:49:11.257Z,100217.69
2023-01-29T04:52:00.585Z,100212.69
2023-01-29T04:54:54.705Z,100216.31
2023-01-29T04:57:34.610Z,100216.31
2023-01-29T05:00:20.177Z,100215.22
2023-01-29T05:02:49.249Z,100222.25
2023-01-29T05:05:20.366Z,100216.47
2023-01-29T05:07:49.595Z,100211.91
2023-01-29T05:10:21.301Z,100215.22
2023-01-29T05:12:58.767Z,100211.06
2023-01-29T05:15:37.833Z,100205.50
2023-01-29T05:18:08.966Z,100204.13
2023-01-29T05:20:41.028Z,100201.47
2023-01-29T05:23:17.760Z,100204.09
2023-01-29T05:25:46.264Z,100210.72
2023-01-29T05:28:17.231Z,100205.75
2023-01-29T05:30:51.604Z,100210.88
2023-01-29T05:33:29.883Z,100214.84
2023-01-29T05:35:59.966Z,100215.81
2023-01-29T05:38:27.275Z,100215.81
2023-01-29T05:40:54.764Z,100222.59
2023-01-29T05:43:25.090Z,100221.50
2023-01-29T05:45:58.114Z,100225.63
2023-01-29T05:48:28.692Z,100230.91
2023-01-29T05:51:04.421Z,100240.03
2023-01-29T05:53:32.812Z,100245.88
2023-01-29T05:56:05.056Z,100245.88
2023-01-29T05:58:33.259Z,100246.41
2023-01-29T06:01:14.383Z,100246.97
2023-01-29T06:03:41.728Z,100248.06
2023-01-29T06:06:09.118Z,100252.75
2023-01-29T06:08:37.070Z,100252.75
2023-01-29T06:11:04.631Z,100265.75
2023-01-29T06:13:31.859Z,100257.75
2023-01-29T06:15:58.980Z,100254.28
2023-01-29T06:18:26.653Z,100256.63
2023-01-29T06:20:53.708Z,100260.72
2023-01-29T06:23:21.043Z,100268.47
2023-01-29T06:25:47.994Z,100271.78
2023-01-29T06:28:15.221Z,100272.63
2023-01-29T06:30:42.434Z,100264.59
2023-01-29T06:33:09.666Z,100270.69
2023-01-29T06:35:36.650Z,100274.84
2023-01-29T06:38:03.902Z,100265.97
2023-01-29T06:40:30.847Z,100282.28
2023-01-29T06:43:00.943Z,100284.19
2023-01-29T06:45:28.013Z,100281.94
2023-01-29T06:47:56.526Z,100276.94
2023-01-29T06:50:23.492Z,100279.31
2023-01-29T06:52:50.699Z,100284.41
2023-01-29T06:55:17.704Z,100286.81
2023-01-29T06:57:44.890Z,100285.88
2023-01-29T07:00:13.003Z,100283.69
2023-01-29T07:02:40.295Z,100281.56
2023-01-29T07:05:07.776Z,100283.25
2023-01-29T07:07:36.787Z,100279.56
2023-01-29T07:10:04.255Z,100281.94
2023-01-29T07:12:31.556Z,100292.97
2023-01-29T07:14:58.532Z,100283.16
2023-01-29T07:17:25.743Z,100294.06
2023-01-29T07:19:52.663Z,100295.41
2023-01-29T07:22:20.127Z,100292.78
2023-01-29T07:24:48.332Z,100293.47
2023-01-29T07:27:15.621Z,100290.16
2023-01-29T07:29:42.627Z,100290.59
2023-01-29T07:32:09.848Z,100287.72
2023-01-29T07:34:36.892Z,100299.06
2023-01-29T07:37:06.026Z,100294.06
2023-01-29T07:39:33.250Z,100294.25
2023-01-29T07:42:00.522Z,100298.94
2023-01-29T07:44:28.998Z,100307.94
2023-01-29T07:46:56.208Z,100302.66
2023-01-29T07:49:23.125Z,100309.06
2023-01-29T07:51:50.463Z,100305.28
2023-01-29T07:54:17.424Z,100315.94
2023-01-29T07:56:44.578Z,100317.91
2023-01-29T07:59:11.647Z,100319.44
2023-01-29T08:01:38.954Z,100314.59
2023-01-29T08:04:05.869Z,100319.06
2023-01-29T08:06:33.476Z,100319.91
2023-01-29T08:09:00.523Z,100335.91
2023-01-29T08:11:27.764Z,100326.78
2023-01-29T08:13:55.255Z,100326.53
2023-01-29T08:16:22.843Z,100328.00
2023-01-29T08:18:50.133Z,100331.59
2023-01-29T08:21:17.430Z,100339.78
2023-01-29T08:23:44.486Z,100331.91
2023-01-29T08:26:11.740Z,100357.06
2023-01-29T08:28:38.825Z,100359.84
2023-01-29T08:31:20.473Z,100354.06
2023-01-29T08:33:47.970Z,100356.56
2023-01-29T08:36:15.733Z,100365.09
2023-01-29T08:38:42.818Z,100362.03
2023-01-29T08:41:10.076Z,100366.88
2023-01-29T08:43:37.269Z,100371.03
2023-01-29T08:46:06.896Z,100360.81
2023-01-29T08:48:34.301Z,100362.22
2023-01-29T08:51:02.894Z,100358.25
2023-01-29T08:53:30.972Z,100350.75
2023-01-29T08:55:58.323Z,100342.19
2023-01-29T08:58:25.360Z,100340.56
2023-01-29T09:00:52.772Z,100345.81
2023-01-29T09:03:19.865Z,100342.19
2023-01-29T09:05:47.067Z,100336.69
2023-01-29T09:08:15.380Z,100332.84
2023-01-29T09:10:43.127Z,100329.22
2023-01-29T09:13:10.335Z,100330.50
2023-01-29T09:15:37.598Z,100330.06
2023-01-29T09:18:05.491Z,100329.56
2023-01-29T09:20:33.396Z,100324.00
2023-01-29T09:23:09.544Z,100332.59
2023-01-29T09:25:37.606Z,100336.19
2023-01-29T09:28:06.146Z,100336.59
2023-01-29T09:30:34.642Z,100326.50
2023-01-29T09:33:02.358Z,100328.97
2023-01-29T09:35:29.653Z,100319.31
2023-01-29T09:37:56.938Z,100320.66
2023-01-29T09:40:38.324Z,100311.53
2023-01-29T09:43:20.367Z,100306.84
2023-01-29T09:46:07.725Z,100308.22
2023-01-29T09:48:37.248Z,100296.59
2023-01-29T09:51:16.566Z,100289.94
2023-01-29T09:53:57.668Z,100279.16
2023-01-29T09:56:28.849Z,100285.53
2023-01-29T09:59:01.677Z,100275.28
2023-01-29T10:01:50.702Z,100270.28
2023-01-29T10:05:04.743Z,100271.28
2023-01-29T10:08:00.536Z,100269.59
2023-01-29T10:10:50.570Z,100267.81
2023-01-29T10:13:45.178Z,100265.03
2023-01-29T10:16:42.023Z,100266.97
2023-01-29T10:20:02.866Z,100269.16
2023-01-29T10:23:20.613Z,100260.88
2023-01-29T10:25:49.677Z,100262.81
2023-01-29T10:28:43.280Z,100267.66
2023-01-29T10:31:32.636Z,100253.13
2023-01-29T10:34:41.060Z,100246.47
2023-01-29T10:37:40.040Z,100244.97
2023-01-29T10:40:29.305Z,100237.34
2023-01-29T10:43:12.899Z,100220.19
2023-01-29T10:46:27.099Z,100217.69
2023-01-29T10:49:37.671Z,100198.47
2023-01-29T10:52:41.919Z,100202.19
2023-01-29T10:55:35.921Z,100191.09
2023-01-29T10:58:38.089Z,100177.09
2023-01-29T11:01:05.425Z,100178.75
2023-01-29T11:03:34.265Z,100175.84
2023-01-29T11:06:24.051Z,100166.16
2023-01-29T11:12:20.182Z,100144.97
2023-01-29T11:14:53.213Z,100139.28
2023-01-29T11:17:25.622Z,100138.44
2023-01-29T11:19:57.880Z,100135.97
2023-01-29T11:22:30.297Z,100129.88
2023-01-29T11:25:20.627Z,100135.72
2023-01-29T11:27:57.045Z,100121.59
2023-01-29T11:30:30.603Z,100122.13
2023-01-29T11:33:18.255Z,100120.72
2023-01-29T11:35:45.795Z,100101.63
2023-01-29T11:38:16.085Z,100097.47
2023-01-29T11:40:44.165Z,100093.47
2023-01-29T11:43:29.894Z,100100.53
2023-01-29T11:46:05.303Z,100089.88
2023-01-29T11:48:45.361Z,100086.25
2023-01-29T11:51:24.527Z,100080.31
2023-01-29T11:54:01.807Z,100073.13
2023-01-29T11:56:46.777Z,100063.94
2023-01-29T11:59:44.254Z,100071.72
2023-01-29T12:02:28.173Z,100061.72
2023-01-29T12:05:04.524Z,100057.31
2023-01-29T12:07:32.818Z,100053.72
2023-01-29T12:10:00.821Z,100052.31
2023-01-29T12:12:42.811Z,100044.13
2023-01-29T12:15:21.138Z,100052.84
2023-01-29T12:18:01.071Z,100051.91
2023-01-29T12:20:42.439Z,100044.81
2023-01-29T12:23:40.686Z,100049.44
2023-01-29T12:26:21.496Z,100055.38
2023-01-29T12:29:23.301Z,100061.31
2023-01-29T12:32:05.827Z,100066.72
2023-01-29T12:34:55.443Z,100068.97
2023-01-29T12:38:00.906Z,100057.38
2023-01-29T12:40:46.037Z,100060.97
2023-01-29T12:43:19.430Z,100068.44
2023-01-29T12:45:54.184Z,100060.97
2023-01-29T12:48:31.195Z,100055.72
2023-01-29T12:51:09.508Z,100055.44
2023-01-29T12:53:50.691Z,100052.28
2023-01-29T12:56:47.287Z,100055.72
2023-01-29T12:59:36.513Z,100060.19
2023-01-29T13:02:40.118Z,100068.47
2023-01-29T13:05:19.510Z,100050.78
2023-01-29T13:07:57.522Z,100047.16
2023-01-29T13:10:38.455Z,100039.28
2023-01-29T13:13:27.342Z,100036.91
2023-01-29T13:15:56.858Z,100037.72
2023-01-29T13:18:58.586Z,100039.06
2023-01-29T13:21:35.011Z,100039.91
2023-01-29T13:24:15.826Z,100032.97
2023-01-29T13:26:48.605Z,100028.25
2023-01-29T13:29:26.541Z,100032.97
2023-01-29T13:32:01.048Z,100028.28
2023-01-29T13:34:36.901Z,100029.09
2023-01-29T13:37:17.724Z,100024.97
2023-01-29T13:39:54.400Z,100034.25
2023-01-29T13:42:47.009Z,100034.94
2023-01-29T13:45:43.233Z,100035.94
2023-01-29T13:48:28.561Z,100026.63
2023-01-29T13:51:02.422Z,100026.38
2023-01-29T13:53:40.062Z,100020.28
2023-01-29T13:56:49.853Z,100018.34
2023-01-29T13:59:51.922Z,100023.88
2023-01-29T14:02:24.576Z,100025.84
2023-01-29T14:05:14.156Z,100020.84
2023-01-29T14:07:47.059Z,100020.28
2023-01-29T14:10:20.717Z,100023.38
2023-01-29T14:12:51.665Z,100024.47
2023-01-29T14:15:25.046Z,100026.84
2023-01-29T14:18:09.374Z,100030.31
2023-01-29T14:20:51.994Z,100020.06
2023-01-29T14:23:33.853Z,100009.81
2023-01-29T14:26:17.856Z,100009.03
2023-01-29T14:29:14.550Z,100004.97
2023-01-29T14:31:59.912Z,100007.59
2023-01-29T14:34:34.721Z,100001.22
2023-01-29T14:37:16.947Z,99999.53
2023-01-29T14:39:53.011Z,99997.59
2023-01-29T14:42:44.027Z,100000.06
2023-01-29T14:45:39.713Z,100003.63
2023-01-29T14:48:10.137Z,100010.19
2023-01-29T14:50:37.716Z,100005.47
2023-01-29T14:53:29.918Z,100008.94
2023-01-29T14:56:10.950Z,100008.78
2023-01-29T14:58:49.765Z,100008.22
2023-01-29T15:01:25.842Z,100007.78
2023-01-29T15:04:30.626Z,100008.09
2023-01-29T15:07:18.742Z,100016.69
2023-01-29T15:10:22.758Z,100004.19
2023-01-29T15:13:02.455Z,99992.03
2023-01-29T15:15:51.274Z,99989.25
2023-01-29T15:18:24.291Z,99982.38
2023-01-29T15:21:05.794Z,99988.16
2023-01-29T15:23:34.966Z,99989.81
2023-01-29T15:26:08.722Z,99979.00
2023-01-29T15:28:36.312Z,99974.53
2023-01-29T15:31:12.257Z,99964.34
2023-01-29T15:33:46.899Z,99975.97
2023-01-29T15:36:31.005Z,99967.38
2023-01-29T15:39:14.718Z,99953.94
2023-01-29T15:41:43.989Z,99957.97
2023-01-29T15:44:23.712Z,99957.13
2023-01-29T15:46:59.292Z,99958.53
2023-01-29T15:49:37.566Z,99968.75
2023-01-29T15:52:09.296Z,99974.53
2023-01-29T15:54:36.564Z,99975.38
2023-01-29T15:57:04.146Z,99970.66
2023-01-29T15:59:39.184Z,99968.72
2023-01-29T16:02:34.157Z,99960.00
2023-01-29T16:05:03.588Z,99963.63
2023-01-29T16:07:31.751Z,99953.66
2023-01-29T16:10:00.166Z,99950.06
2023-01-29T16:12:28.989Z,99945.47
2023-01-29T16:14:57.210Z,99948.13
2023-01-29T16:17:37.050Z,99951.88
2023-01-29T16:20:07.964Z,99951.31
2023-01-29T16:22:39.109Z,99955.47
2023-01-29T16:25:14.485Z,99953.66
2023-01-29T16:27:44.315Z,99949.38
2023-01-29T16:30:17.366Z,99943.81
2023-01-29T16:32:44.887Z,99957.13
2023-01-29T16:35:17.244Z,99962.50
2023-01-29T16:37:50.859Z,99972.06
2023-01-29T16:40:34.008Z,99969.59
2023-01-29T16:43:28.389Z,99968.47
2023-01-29T16:46:04.747Z,99957.34
2023-01-29T16:48:34.766Z,99956.41
2023-01-29T16:51:21.104Z,99967.31
2023-01-29T16:54:18.149Z,99971.19
2023-01-29T16:56:48.723Z,99976.44
2023-01-29T16:59:34.607Z,99967.59
2023-01-29T17:02:04.382Z,99972.03
2023-01-29T17:04:33.002Z,99970.91
2023-01-29T17:07:02.660Z,99972.56
2023-01-29T17:09:37.764Z,99962.03
2023-01-29T17:12:17.173Z,99968.94
2023-01-29T17:14:58.920Z,99955.94
2023-01-29T17:17:35.771Z,99960.38
2023-01-29T17:20:14.973Z,99962.03
2023-01-29T17:22:44.899Z,99953.16
2023-01-29T17:25:17.156Z,99954.81
2023-01-29T17:27:51.745Z,99947.63
2023-01-29T17:30:23.792Z,99946.25
2023-01-29T17:32:50.866Z,99933.97
2023-01-29T17:35:18.959Z,99938.56
2023-01-29T17:37:46.530Z,99932.34
2023-01-29T17:40:57.508Z,99915.03
2023-01-29T17:43:24.635Z,99922.47
2023-01-29T17:45:51.889Z,99915.56
2023-01-29T17:48:28.034Z,99918.34
2023-01-29T17:51:04.507Z,99919.75
2023-01-29T17:53:44.893Z,99919.75
2023-01-29T17:56:23.398Z,99920.09
2023-01-29T17:58:50.516Z,99912.66
2023-01-29T18:01:17.826Z,99908.00
2023-01-29T18:03:44.865Z,99904.38
2023-01-29T18:06:27.212Z,99908.66
2023-01-29T18:08:54.465Z,99916.28
2023-01-29T18:11:21.814Z,99907.38
2023-01-29T18:13:48.864Z,99903.78
2023-01-29T18:16:18.207Z,99896.59
2023-01-29T18:18:45.652Z,99893.38
2023-01-29T18:21:12.859Z,99894.06
2023-01-29T18:23:39.901Z,99894.06
2023-01-29T18:26:10.052Z,99900.66
2023-01-29T18:28:37.841Z,99898.72
2023-01-29T18:31:06.603Z,99901.06
2023-01-29T18:33:35.613Z,99898.13
2023-01-29T18:36:06.697Z,99908.94
2023-01-29T18:38:33.694Z,99902.00
2023-01-29T18:41:11.878Z,99903.00
2023-01-29T18:43:41.301Z,99905.94
2023-01-29T18:46:09.356Z,99894.06
2023-01-29T18:48:36.421Z,99891.56
2023-01-29T18:51:03.855Z,99886.28
2023-01-29T18:53:32.728Z,99889.19
2023-01-29T18:56:04.651Z,99882.63
2023-01-29T18:58:35.932Z,99880.97
2023-01-29T19:01:09.399Z,99872.13
2023-01-29T19:03:38.287Z,99880.41
2023-01-29T19:06:08.561Z,99876.47
2023-01-29T19:08:36.530Z,99886.19
2023-01-29T19:11:07.965Z,99885.50
2023-01-29T19:13:36.917Z,99887.00
2023-01-29T19:16:11.070Z,99880.50
2023-01-29T19:18:38.746Z,99872.59
2023-01-29T19:21:09.999Z,99855.44
2023-01-29T19:23:37.907Z,99852.13
2023-01-29T19:26:06.054Z,99849.22
2023-01-29T19:28:33.648Z,99848.22
2023-01-29T19:31:01.444Z,99843.28
2023-01-29T19:33:32.619Z,99845.22
2023-01-29T19:36:00.426Z,99843.72
2023-01-29T19:38:28.159Z,99852.97
2023-01-29T19:40:56.022Z,99851.28
2023-01-29T19:43:23.146Z,99851.16
2023-01-29T19:45:59.499Z,99846.88
2023-01-29T19:48:27.473Z,99845.22
2023-01-29T19:50:57.384Z,99839.13
2023-01-29T19:53:27.130Z,99838.59
2023-01-29T19:56:04.869Z,99835.00
2023-01-29T19:58:33.729Z,99836.63
2023-01-29T20:01:14.354Z,99830.03
2023-01-29T20:03:42.137Z,99835.00
2023-01-29T20:06:09.734Z,99826.13
2023-01-29T20:08:36.793Z,99826.13
2023-01-29T20:11:05.632Z,99822.81
2023-01-29T20:13:33.697Z,99833.34
2023-01-29T20:16:05.641Z,99824.47
2023-01-29T20:18:33.071Z,99821.03
2023-01-29T20:21:08.189Z,99821.19
2023-01-29T20:23:38.605Z,99815.59
2023-01-29T20:26:15.248Z,99818.22
2023-01-29T20:28:43.166Z,99825.16
2023-01-29T20:31:10.467Z,99815.59
2023-01-29T20:33:39.523Z,99809.53
2023-01-29T20:36:10.995Z,99807.03
2023-01-29T20:38:38.288Z,99803.44
2023-01-29T20:41:13.991Z,99812.00
2023-01-29T20:43:42.241Z,99806.75
2023-01-29T20:46:10.283Z,99801.47
2023-01-29T20:48:41.899Z,99800.13
2023-01-29T20:51:16.191Z,99802.59
2023-01-29T20:53:46.375Z,99791.25
2023-01-29T20:56:17.286Z,99791.25
2023-01-29T20:58:46.501Z,99788.50
2023-01-29T21:01:20.179Z,99784.84
2023-01-29T21:03:48.301Z,99786.66
2023-01-29T21:06:16.166Z,99788.16
2023-01-29T21:08:43.279Z,99773.88
2023-01-29T21:11:11.120Z,99779.00
2023-01-29T21:13:38.277Z,99791.16
2023-01-29T21:16:06.238Z,99788.69
2023-01-29T21:18:33.427Z,99786.44
2023-01-29T21:21:00.735Z,99777.25
2023-01-29T21:23:29.348Z,99780.88
2023-01-29T21:26:06.564Z,99774.94
2023-01-29T21:28:34.591Z,99777.56
2023-01-29T21:31:10.315Z,99767.88
2023-01-29T21:33:38.072Z,99764.41
2023-01-29T21:36:06.144Z,99763.44
2023-01-29T21:38:33.237Z,99752.91
2023-01-29T21:41:06.540Z,99754.88
2023-01-29T21:43:33.731Z,99751.56
2023-01-29T21:46:05.037Z,99749.06
2023-01-29T21:48:32.507Z,99749.91
2023-01-29T21:50:59.864Z,99741.34
2023-01-29T21:53:29.136Z,99731.66
2023-01-29T21:56:04.441Z,99736.09
2023-01-29T21:58:32.132Z,99731.66
2023-01-29T22:01:36.725Z,99724.72
2023-01-29T22:03:47.575Z,99711.41
2023-01-29T22:06:15.536Z,99714.75
2023-01-29T22:08:42.576Z,99709.78
2023-01-29T22:11:10.458Z,99699.25
2023-01-29T22:13:37.699Z,99695.97
2023-01-29T22:16:05.906Z,99691.66
2023-01-29T22:18:33.839Z,99694.28
2023-01-29T22:21:02.904Z,99694.28
2023-01-29T22:23:31.865Z,99678.81
2023-01-29T22:26:07.275Z,99678.81
2023-01-29T22:28:35.077Z,99678.50
2023-01-29T22:31:04.481Z,99663.72
2023-01-29T22:33:33.489Z,99668.91
2023-01-29T22:36:03.528Z,99661.03
2023-01-29T22:38:31.163Z,99656.72
2023-01-29T22:41:00.611Z,99643.75
2023-01-29T22:43:27.745Z,99643.22
2023-01-29T22:45:56.426Z,99636.31
2023-01-29T22:48:24.658Z,99639.09
2023-01-29T22:51:12.265Z,99631.66
2023-01-29T22:53:48.071Z,99623.09
2023-01-29T22:56:15.870Z,99618.16
2023-01-29T22:58:42.966Z,99614.84
2023-01-29T23:01:11.134Z,99624.41
2023-01-29T23:03:38.125Z,99621.78
2023-01-29T23:06:06.380Z,99619.16
2023-01-29T23:08:33.973Z,99611.25
2023-01-29T23:11:15.277Z,99612.88
2023-01-29T23:13:48.944Z,99607.63
2023-01-29T23:16:18.317Z,99604.03
2023-01-29T23:18:51.145Z,99604.03
2023-01-29T23:21:19.642Z,99604.03
2023-01-29T23:23:47.252Z,99593.50
2023-01-29T23:26:34.140Z,99594.34
2023-01-29T23:29:01.483Z,99592.69
2023-01-29T23:31:28.705Z,99586.91
2023-01-29T23:33:56.370Z,99579.47
2023-01-29T23:36:23.528Z,99581.28
2023-01-29T23:38:50.546Z,99581.44
2023-01-29T23:41:17.769Z,99573.72
2023-01-29T23:43:47.661Z,99573.72
2023-01-29T23:46:14.907Z,99568.75
2023-01-29T23:48:42.050Z,99555.91
2023-01-29T23:51:10.675Z,99545.41
2023-01-29T23:53:37.698Z,99535.88
2023-01-29T23:56:06.090Z,99527.00
2023-01-29T23:58:34.224Z,99539.19
